createdAt,value
2017-08-09T00:00:02.172Z,22.57
2017-08-09T00:02:30.624Z,21.30
2017-08-09T00:05:00.323Z,25.23
2017-08-09T00:07:30.149Z,32.00
2017-08-09T00:09:58.932Z,24.83
2017-08-09T00:12:28.429Z,25.53
2017-08-09T00:14:57.022Z,24.23
2017-08-09T00:17:25.604Z,32.67
2017-08-09T00:19:54.207Z,26.30
2017-08-09T00:22:23.391Z,32.40
2017-08-09T00:24:52.421Z,28.20
2017-08-09T00:27:21.806Z,27.27
2017-08-09T00:29:51.344Z,35.10
2017-08-09T00:32:21.224Z,29.40
2017-08-09T00:34:50.164Z,33.27
2017-08-09T00:37:19.201Z,34.53
2017-08-09T00:39:47.559Z,33.63
2017-08-09T00:42:15.963Z,32.70
2017-08-09T00:44:44.697Z,31.40
2017-08-09T00:47:13.027Z,36.90
2017-08-09T00:49:41.352Z,39.73
2017-08-09T00:52:10.781Z,37.90
2017-08-09T00:54:39.120Z,39.63
2017-08-09T00:57:07.516Z,37.30
2017-08-09T00:59:36.563Z,29.33
2017-08-09T01:02:04.889Z,31.80
2017-08-09T01:04:34.045Z,35.77
2017-08-09T01:07:03.098Z,33.97
2017-08-09T01:09:31.876Z,32.93
2017-08-09T01:12:00.306Z,32.97
2017-08-09T01:14:29.745Z,34.23
2017-08-09T01:16:58.307Z,36.13
2017-08-09T01:19:28.491Z,41.53
2017-08-09T01:21:57.270Z,36.70
2017-08-09T01:24:25.822Z,45.43
2017-08-09T01:26:54.550Z,51.03
2017-08-09T01:29:25.046Z,47.77
2017-08-09T01:31:53.559Z,39.63
2017-08-09T01:34:23.853Z,51.10
2017-08-09T01:36:53.944Z,49.00
2017-08-09T01:39:23.524Z,59.00
2017-08-09T01:41:52.895Z,48.67
2017-08-09T01:44:22.253Z,58.63
2017-08-09T01:46:52.300Z,55.17
2017-08-09T01:49:21.379Z,53.20
2017-08-09T01:51:52.078Z,55.27
2017-08-09T01:54:21.608Z,61.07
2017-08-09T01:56:52.118Z,67.43
2017-08-09T01:59:21.238Z,63.30
2017-08-09T02:01:50.020Z,63.23
2017-08-09T02:04:18.627Z,60.50
2017-08-09T02:06:47.511Z,80.67
2017-08-09T02:09:17.178Z,72.43
2017-08-09T02:11:46.337Z,79.97
2017-08-09T02:14:14.854Z,77.83
2017-08-09T02:16:43.400Z,76.77
2017-08-09T02:19:11.736Z,82.53
2017-08-09T02:21:40.503Z,82.97
2017-08-09T02:24:08.848Z,93.30
2017-08-09T02:26:37.203Z,82.80
2017-08-09T02:29:05.996Z,83.07
2017-08-09T02:31:34.346Z,101.17
2017-08-09T02:34:02.700Z,91.57
2017-08-09T02:36:32.542Z,88.30
2017-08-09T02:39:01.265Z,89.43
2017-08-09T02:41:30.836Z,99.30
2017-08-09T02:44:00.147Z,92.50
2017-08-09T02:46:28.884Z,90.63
2017-08-09T02:48:57.410Z,89.50
2017-08-09T02:51:26.606Z,103.43
2017-08-09T02:53:56.791Z,98.20
2017-08-09T02:56:25.476Z,101.80
2017-08-09T02:58:55.389Z,99.23
2017-08-09T03:01:23.946Z,100.17
2017-08-09T03:03:52.826Z,89.13
2017-08-09T03:06:22.642Z,103.40
2017-08-09T03:08:53.140Z,97.77
2017-08-09T03:11:23.116Z,95.60
2017-08-09T03:13:52.569Z,98.87
2017-08-09T03:16:22.808Z,97.50
2017-08-09T03:18:54.757Z,98.93
2017-08-09T03:21:24.151Z,90.30
2017-08-09T03:23:53.106Z,93.10
2017-08-09T03:26:22.655Z,93.37
2017-08-09T03:28:53.155Z,99.93
2017-08-09T03:31:23.850Z,96.53
2017-08-09T03:33:54.446Z,99.40
2017-08-09T03:36:23.693Z,97.57
2017-08-09T03:38:53.833Z,98.93
2017-08-09T03:41:22.742Z,97.67
2017-08-09T03:43:52.407Z,99.20
2017-08-09T03:46:22.459Z,101.40
2017-08-09T03:48:53.463Z,95.10
2017-08-09T03:51:24.661Z,105.60
2017-08-09T03:53:53.353Z,99.63
2017-08-09T03:56:23.777Z,105.87
2017-08-09T03:58:54.608Z,116.53
2017-08-09T04:01:25.520Z,95.97
2017-08-09T04:03:55.364Z,95.47
2017-08-09T04:06:24.877Z,95.90
2017-08-09T04:08:54.194Z,99.30
2017-08-09T04:11:23.944Z,92.30
2017-08-09T04:13:53.171Z,89.53
2017-08-09T04:16:22.585Z,89.33
2017-08-09T04:18:54.965Z,82.77
2017-08-09T04:21:26.058Z,76.40
2017-08-09T04:23:57.252Z,80.87
2017-08-09T04:26:26.961Z,74.40
2017-08-09T04:28:56.561Z,74.83
2017-08-09T04:31:25.954Z,69.00
2017-08-09T04:33:54.631Z,79.60
2017-08-09T04:36:23.485Z,63.03
2017-08-09T04:38:54.059Z,63.97
2017-08-09T04:41:23.645Z,59.67
2017-08-09T04:43:52.727Z,51.67
2017-08-09T04:46:22.919Z,60.80
2017-08-09T04:48:53.957Z,47.73
2017-08-09T04:51:24.151Z,50.43
2017-08-09T04:53:54.367Z,40.30
2017-08-09T04:56:24.553Z,39.57
2017-08-09T04:58:54.842Z,40.00
2017-08-09T05:01:24.442Z,35.07
2017-08-09T05:03:53.595Z,40.63
2017-08-09T05:06:23.302Z,36.60
2017-08-09T05:08:52.634Z,31.30
2017-08-09T05:11:22.047Z,31.50
2017-08-09T05:13:52.767Z,28.50
2017-08-09T05:16:22.601Z,24.30
2017-08-09T05:18:51.436Z,19.10
2017-08-09T05:21:20.905Z,24.23
2017-08-09T05:23:50.298Z,22.73
2017-08-09T05:26:19.734Z,18.30
2017-08-09T05:28:49.001Z,22.03
2017-08-09T05:31:17.751Z,23.40
2017-08-09T05:33:46.204Z,23.63
2017-08-09T05:36:16.110Z,28.23
2017-08-09T05:38:44.460Z,23.73
2017-08-09T05:41:12.773Z,25.70
2017-08-09T05:43:41.553Z,23.60
2017-08-09T05:46:09.903Z,27.60
2017-08-09T05:48:38.236Z,31.97
2017-08-09T05:51:07.770Z,21.40
2017-08-09T05:53:36.114Z,24.50
2017-08-09T05:56:04.869Z,23.00
2017-08-09T05:58:34.561Z,23.50
2017-08-09T06:01:03.148Z,23.27
2017-08-09T06:03:31.523Z,42.97
2017-08-09T06:06:00.124Z,23.47
2017-08-09T06:08:28.691Z,26.33
2017-08-09T06:10:57.948Z,19.60
2017-08-09T06:13:27.434Z,20.50
2017-08-09T06:15:56.116Z,27.43
2017-08-09T06:18:25.293Z,22.60
2017-08-09T06:20:54.921Z,22.43
2017-08-09T06:23:24.094Z,26.00
2017-08-09T06:25:53.188Z,24.07
2017-08-09T06:28:22.589Z,26.43
2017-08-09T06:30:50.971Z,26.37
2017-08-09T06:33:19.427Z,26.37
2017-08-09T06:35:48.525Z,42.63
2017-08-09T06:38:16.865Z,29.70
2017-08-09T06:40:46.004Z,38.27
2017-08-09T06:43:15.777Z,35.33
2017-08-09T06:45:45.133Z,32.33
2017-08-09T06:48:13.480Z,34.50
2017-08-09T06:50:43.008Z,30.17
2017-08-09T06:53:11.337Z,30.87
2017-08-09T06:55:40.428Z,28.90
2017-08-09T06:58:10.810Z,34.63
2017-08-09T07:00:39.128Z,28.50
2017-08-09T07:03:07.464Z,28.17
2017-08-09T07:05:37.237Z,28.60
2017-08-09T07:08:05.730Z,35.23
2017-08-09T07:10:34.097Z,28.50
2017-08-09T07:13:02.877Z,27.10
2017-08-09T07:15:31.227Z,24.53
2017-08-09T07:17:59.586Z,28.17
2017-08-09T07:20:29.711Z,38.20
2017-08-09T07:22:58.131Z,31.63
2017-08-09T07:25:27.383Z,29.80
2017-08-09T07:27:57.106Z,30.40
2017-08-09T07:30:26.383Z,30.20
2017-08-09T07:32:55.005Z,27.43
2017-08-09T07:35:24.409Z,28.53
2017-08-09T07:37:53.901Z,23.03
2017-08-09T07:40:22.600Z,25.27
2017-08-09T07:42:51.807Z,28.43
2017-08-09T07:45:20.242Z,25.30
2017-08-09T07:47:48.827Z,26.87
2017-08-09T07:50:18.759Z,24.73
2017-08-09T07:52:47.111Z,27.20
2017-08-09T07:55:15.440Z,24.97
2017-08-09T07:57:43.904Z,28.43
2017-08-09T08:00:12.252Z,25.80
2017-08-09T08:02:41.309Z,25.73
2017-08-09T08:05:10.102Z,36.20
2017-08-09T08:07:38.416Z,22.83
2017-08-09T08:10:06.777Z,23.37
2017-08-09T08:12:36.196Z,28.13
2017-08-09T08:15:04.561Z,19.13
2017-08-09T08:17:33.152Z,18.60
2017-08-09T08:20:02.752Z,20.60
2017-08-09T08:22:31.236Z,21.37
2017-08-09T08:25:00.775Z,22.23
2017-08-09T08:27:29.806Z,19.57
2017-08-09T08:29:59.272Z,18.73
2017-08-09T08:32:28.483Z,15.27
2017-08-09T08:34:58.858Z,18.90
2017-08-09T08:37:27.247Z,18.40
2017-08-09T08:39:56.453Z,19.53
2017-08-09T08:42:25.330Z,23.73
2017-08-09T08:44:54.027Z,12.87
2017-08-09T08:47:22.880Z,21.10
2017-08-09T08:49:53.003Z,23.23
2017-08-09T08:52:21.889Z,20.53
2017-08-09T08:54:51.504Z,11.53
2017-08-09T08:57:21.005Z,11.77
2017-08-09T08:59:49.737Z,14.10
2017-08-09T09:02:18.182Z,9.20
2017-08-09T09:04:46.804Z,12.17
2017-08-09T09:07:15.193Z,18.60
2017-08-09T09:09:44.296Z,13.20
2017-08-09T09:12:13.006Z,11.77
2017-08-09T09:14:41.338Z,14.57
2017-08-09T09:17:09.704Z,16.50
2017-08-09T09:19:38.189Z,15.23
2017-08-09T09:22:06.529Z,12.73
2017-08-09T09:24:34.898Z,13.90
2017-08-09T09:27:03.412Z,11.40
2017-08-09T09:29:31.968Z,12.37
2017-08-09T09:32:01.576Z,14.73
2017-08-09T09:34:31.545Z,13.63
2017-08-09T09:37:00.328Z,16.17
2017-08-09T09:39:29.073Z,13.60
2017-08-09T09:41:58.596Z,11.20
2017-08-09T09:44:28.843Z,11.00
2017-08-09T09:46:57.962Z,9.53
2017-08-09T09:49:26.653Z,11.80
2017-08-09T09:51:55.060Z,12.20
2017-08-09T09:54:24.485Z,9.10
2017-08-09T09:56:53.614Z,12.27
2017-08-09T09:59:23.636Z,10.60
2017-08-09T10:01:52.504Z,10.03
2017-08-09T10:04:22.029Z,9.33
2017-08-09T10:06:50.634Z,9.90
2017-08-09T10:09:19.196Z,10.97
2017-08-09T10:11:48.802Z,7.37
2017-08-09T10:14:17.928Z,12.30
2017-08-09T10:16:46.747Z,8.63
2017-08-09T10:19:16.154Z,10.87
2017-08-09T10:21:47.736Z,9.80
2017-08-09T10:24:16.139Z,7.50
2017-08-09T10:26:44.877Z,10.67
2017-08-09T10:29:14.278Z,11.10
2017-08-09T10:31:42.611Z,8.73
2017-08-09T10:34:11.370Z,9.97
2017-08-09T10:36:39.689Z,6.83
2017-08-09T10:39:08.024Z,4.67
2017-08-09T10:41:38.344Z,9.47
2017-08-09T10:44:06.703Z,10.00
2017-08-09T10:46:35.065Z,10.80
2017-08-09T10:49:03.554Z,11.83
2017-08-09T10:51:31.874Z,19.53
2017-08-09T10:54:00.255Z,11.33
2017-08-09T10:56:29.350Z,8.73
2017-08-09T10:58:57.822Z,11.43
2017-08-09T11:01:26.507Z,8.57
2017-08-09T11:03:56.181Z,9.40
2017-08-09T11:06:24.983Z,10.43
2017-08-09T11:08:53.669Z,10.00
2017-08-09T11:11:23.430Z,16.53
2017-08-09T11:13:52.524Z,8.47
2017-08-09T11:16:21.580Z,16.47
2017-08-09T11:18:50.810Z,12.23
2017-08-09T11:21:20.277Z,14.90
2017-08-09T11:23:48.797Z,11.07
2017-08-09T11:26:17.816Z,10.10
2017-08-09T11:28:46.225Z,16.97
2017-08-09T11:31:14.569Z,47.80
2017-08-09T11:33:44.072Z,15.93
2017-08-09T11:36:13.273Z,10.23
2017-08-09T11:38:41.583Z,11.17
2017-08-09T11:41:10.466Z,9.40
2017-08-09T11:43:39.589Z,11.00
2017-08-09T11:46:07.930Z,16.80
2017-08-09T11:48:36.781Z,10.77
2017-08-09T11:51:05.900Z,12.37
2017-08-09T11:53:34.229Z,13.00
2017-08-09T11:56:02.861Z,8.53
2017-08-09T11:58:32.323Z,9.40
2017-08-09T12:01:00.881Z,12.33
2017-08-09T12:03:30.993Z,9.90
2017-08-09T12:05:59.450Z,8.90
2017-08-09T12:08:27.858Z,9.80
2017-08-09T12:10:57.564Z,14.30
2017-08-09T12:13:27.052Z,11.93
2017-08-09T12:15:55.537Z,8.50
2017-08-09T12:18:25.576Z,12.70
2017-08-09T12:20:55.109Z,10.83
2017-08-09T12:23:24.772Z,11.10
2017-08-09T12:25:54.059Z,10.50
2017-08-09T12:28:23.045Z,20.00
2017-08-09T12:30:51.831Z,13.37
2017-08-09T12:33:21.660Z,18.80
2017-08-09T12:35:50.789Z,12.57
2017-08-09T12:38:21.578Z,11.80
2017-08-09T12:40:51.042Z,15.83
2017-08-09T12:43:20.325Z,13.53
2017-08-09T12:45:50.055Z,13.23
2017-08-09T12:48:20.479Z,15.37
2017-08-09T12:50:48.933Z,15.93
2017-08-09T12:53:17.284Z,18.03
2017-08-09T12:55:46.415Z,17.53
2017-08-09T12:58:14.742Z,14.93
2017-08-09T13:00:43.138Z,14.27
2017-08-09T13:03:11.902Z,14.27
2017-08-09T13:05:40.410Z,14.80
2017-08-09T13:08:08.722Z,16.13
2017-08-09T13:10:37.211Z,19.00
2017-08-09T13:13:05.548Z,19.27
2017-08-09T13:15:34.029Z,19.90
2017-08-09T13:18:02.542Z,16.60
2017-08-09T13:20:31.734Z,13.17
2017-08-09T13:23:00.093Z,13.63
2017-08-09T13:25:28.645Z,11.87
2017-08-09T13:27:57.249Z,13.37
2017-08-09T13:30:25.767Z,12.07
2017-08-09T13:32:56.416Z,16.50
2017-08-09T13:35:25.108Z,12.10
2017-08-09T13:37:53.976Z,17.37
2017-08-09T13:40:23.277Z,13.93
2017-08-09T13:42:51.985Z,13.77
2017-08-09T13:45:20.702Z,13.70
2017-08-09T13:47:51.033Z,19.90
2017-08-09T13:50:20.685Z,15.07
2017-08-09T13:52:49.258Z,8.60
2017-08-09T13:55:19.028Z,12.63
2017-08-09T13:57:47.468Z,14.10
2017-08-09T14:00:16.352Z,12.80
2017-08-09T14:02:45.808Z,10.90
2017-08-09T14:05:14.134Z,9.40
2017-08-09T14:07:42.461Z,9.93
2017-08-09T14:10:11.136Z,14.83
2017-08-09T14:12:39.460Z,12.00
2017-08-09T14:15:07.801Z,9.63
2017-08-09T14:17:36.853Z,11.50
2017-08-09T14:20:05.199Z,11.53
2017-08-09T14:22:33.517Z,14.00
2017-08-09T14:25:02.010Z,8.83
2017-08-09T14:27:30.328Z,12.27
2017-08-09T14:29:59.524Z,10.30
2017-08-09T14:32:28.673Z,10.30
2017-08-09T14:34:57.106Z,14.63
2017-08-09T14:37:27.512Z,10.30
2017-08-09T14:39:56.563Z,8.70
2017-08-09T14:42:25.256Z,9.17
2017-08-09T14:44:53.722Z,12.23
2017-08-09T14:47:23.849Z,9.60
2017-08-09T14:49:52.432Z,8.73
2017-08-09T14:52:21.853Z,9.03
2017-08-09T14:54:52.859Z,13.20
2017-08-09T14:57:22.491Z,10.20
2017-08-09T14:59:54.146Z,11.03
2017-08-09T15:02:23.797Z,12.47
2017-08-09T15:04:52.483Z,10.20
2017-08-09T15:07:22.282Z,13.43
2017-08-09T15:09:52.605Z,10.87
2017-08-09T15:12:21.649Z,10.60
2017-08-09T15:14:51.667Z,9.43
2017-08-09T15:17:20.445Z,11.60
2017-08-09T15:19:49.959Z,10.10
2017-08-09T15:22:21.903Z,10.10
2017-08-09T15:24:50.808Z,13.10
2017-08-09T15:27:19.799Z,8.97
2017-08-09T15:29:49.189Z,9.73
2017-08-09T15:32:17.589Z,11.30
2017-08-09T15:34:46.756Z,11.50
2017-08-09T15:37:16.117Z,9.43
2017-08-09T15:39:45.206Z,9.67
2017-08-09T15:42:14.744Z,12.43
2017-08-09T15:44:45.498Z,15.63
2017-08-09T15:47:13.933Z,13.03
2017-08-09T15:49:42.271Z,10.57
2017-08-09T15:52:11.203Z,9.60
2017-08-09T15:54:40.360Z,9.17
2017-08-09T15:57:08.766Z,12.70
2017-08-09T15:59:37.576Z,10.00
2017-08-09T16:02:06.303Z,16.67
2017-08-09T16:04:35.412Z,10.40
2017-08-09T16:07:05.668Z,11.77
2017-08-09T16:09:34.012Z,12.90
2017-08-09T16:12:02.984Z,16.23
2017-08-09T16:14:31.967Z,14.60
2017-08-09T16:17:00.429Z,13.70
2017-08-09T16:19:29.904Z,15.17
2017-08-09T16:21:58.873Z,15.27
2017-08-09T16:24:27.531Z,13.20
2017-08-09T16:26:56.597Z,15.97
2017-08-09T16:29:26.800Z,12.80
2017-08-09T16:31:56.063Z,14.43
2017-08-09T16:34:24.760Z,14.20
2017-08-09T16:36:54.201Z,13.60
2017-08-09T16:39:23.422Z,14.10
2017-08-09T16:41:53.103Z,15.07
2017-08-09T16:44:22.580Z,14.33
2017-08-09T16:46:52.386Z,13.23
2017-08-09T16:49:21.864Z,16.63
2017-08-09T16:51:54.743Z,20.43
2017-08-09T16:54:24.574Z,13.43
2017-08-09T16:56:53.752Z,13.90
2017-08-09T16:59:23.034Z,14.90
2017-08-09T17:01:51.547Z,13.63
2017-08-09T17:04:20.381Z,16.17
2017-08-09T17:06:51.312Z,25.90
2017-08-09T17:09:20.041Z,15.60
2017-08-09T17:11:50.871Z,13.03
2017-08-09T17:14:20.480Z,23.57
2017-08-09T17:16:50.177Z,16.30
2017-08-09T17:19:18.618Z,24.67
2017-08-09T17:21:47.177Z,15.60
2017-08-09T17:24:15.499Z,18.80
2017-08-09T17:26:43.883Z,15.37
2017-08-09T17:29:12.615Z,16.50
2017-08-09T17:31:41.722Z,15.77
2017-08-09T17:34:10.094Z,17.73
2017-08-09T17:36:39.772Z,14.67
2017-08-09T17:39:08.362Z,14.43
2017-08-09T17:41:36.733Z,16.37
2017-08-09T17:44:06.170Z,15.57
2017-08-09T17:46:34.787Z,19.73
2017-08-09T17:49:03.989Z,18.30
2017-08-09T17:51:32.774Z,15.63
2017-08-09T17:54:01.152Z,14.23
2017-08-09T17:56:29.844Z,14.40
2017-08-09T17:58:59.725Z,15.43
2017-08-09T18:01:29.488Z,12.13
2017-08-09T18:03:59.947Z,14.70
2017-08-09T18:06:29.200Z,21.77
2017-08-09T18:08:57.763Z,21.63
2017-08-09T18:11:26.617Z,16.13
2017-08-09T18:13:55.804Z,14.40
2017-08-09T18:16:28.475Z,18.30
2017-08-09T18:18:57.563Z,16.13
2017-08-09T18:21:27.139Z,14.10
2017-08-09T18:23:55.953Z,15.77
2017-08-09T18:26:25.224Z,17.60
2017-08-09T18:28:53.732Z,18.10
2017-08-09T18:31:22.550Z,17.13
2017-08-09T18:33:51.831Z,15.50
2017-08-09T18:36:21.001Z,17.43
2017-08-09T18:38:50.222Z,15.30
2017-08-09T18:41:19.157Z,14.80
2017-08-09T18:43:47.569Z,14.70
2017-08-09T18:46:16.682Z,14.67
2017-08-09T18:48:47.066Z,19.90
2017-08-09T18:51:16.254Z,15.37
2017-08-09T18:53:45.404Z,25.10
2017-08-09T18:56:14.658Z,22.47
2017-08-09T18:58:48.239Z,14.30
2017-08-09T19:01:17.379Z,12.97
2017-08-09T19:03:46.656Z,17.93
2017-08-09T19:06:14.968Z,15.70
2017-08-09T19:08:43.540Z,16.60
2017-08-09T19:11:11.894Z,14.63
2017-08-09T19:13:40.220Z,20.57
2017-08-09T19:16:09.572Z,25.10
2017-08-09T19:18:37.926Z,16.57
2017-08-09T19:21:06.247Z,17.70
2017-08-09T19:23:35.004Z,15.73
2017-08-09T19:26:04.106Z,15.53
2017-08-09T19:28:32.718Z,21.93
2017-08-09T19:31:01.227Z,19.13
2017-08-09T19:33:29.796Z,17.13
2017-08-09T19:35:58.381Z,19.83
2017-08-09T19:38:27.206Z,33.00
2017-08-09T19:40:56.512Z,19.93
2017-08-09T19:43:25.685Z,27.63
2017-08-09T19:45:57.061Z,30.80
2017-08-09T19:48:26.946Z,30.43
2017-08-09T19:50:56.458Z,26.30
2017-08-09T19:53:26.211Z,29.27
2017-08-09T19:55:55.429Z,29.40
2017-08-09T19:58:24.089Z,33.00
2017-08-09T20:00:52.922Z,30.43
2017-08-09T20:03:22.055Z,30.27
2017-08-09T20:05:50.782Z,23.93
2017-08-09T20:08:19.496Z,19.30
2017-08-09T20:10:47.874Z,21.40
2017-08-09T20:13:17.289Z,23.97
2017-08-09T20:15:46.557Z,23.57
2017-08-09T20:18:14.904Z,34.17
2017-08-09T20:20:43.299Z,25.80
2017-08-09T20:23:12.566Z,24.97
2017-08-09T20:25:40.917Z,22.90
2017-08-09T20:28:09.241Z,21.47
2017-08-09T20:30:39.322Z,20.03
2017-08-09T20:33:07.637Z,25.53
2017-08-09T20:35:35.974Z,19.77
2017-08-09T20:38:05.105Z,25.77
2017-08-09T20:40:33.474Z,21.97
2017-08-09T20:43:01.865Z,25.70
2017-08-09T20:45:30.533Z,35.87
2017-08-09T20:47:59.010Z,19.50
2017-08-09T20:50:28.159Z,19.87
2017-08-09T20:52:59.688Z,22.50
2017-08-09T20:55:28.396Z,19.07
2017-08-09T20:57:57.014Z,23.73
2017-08-09T21:00:25.665Z,15.10
2017-08-09T21:02:54.335Z,20.23
2017-08-09T21:05:22.905Z,17.50
2017-08-09T21:07:52.104Z,18.20
2017-08-09T21:10:21.215Z,27.77
2017-08-09T21:12:49.989Z,24.70
2017-08-09T21:15:18.921Z,20.53
2017-08-09T21:17:47.285Z,18.17
2017-08-09T21:20:16.664Z,31.20
2017-08-09T21:22:47.467Z,13.73
2017-08-09T21:25:16.616Z,25.73
2017-08-09T21:27:44.943Z,20.77
2017-08-09T21:30:13.823Z,21.13
2017-08-09T21:32:42.166Z,21.10
2017-08-09T21:35:10.564Z,18.03
2017-08-09T21:37:39.029Z,20.53
2017-08-09T21:40:07.352Z,11.80
2017-08-09T21:42:35.722Z,12.97
2017-08-09T21:45:05.054Z,14.10
2017-08-09T21:47:33.551Z,14.97
2017-08-09T21:50:02.043Z,11.13
2017-08-09T21:52:30.905Z,13.00
2017-08-09T21:54:59.531Z,9.27
2017-08-09T21:57:28.762Z,25.50
2017-08-09T21:59:57.209Z,11.30
2017-08-09T22:02:25.972Z,13.83
2017-08-09T22:04:54.580Z,16.07
2017-08-09T22:07:24.974Z,11.17
2017-08-09T22:09:53.701Z,10.50
2017-08-09T22:12:22.241Z,13.30
2017-08-09T22:14:51.658Z,13.80
2017-08-09T22:17:20.506Z,13.60
2017-08-09T22:19:48.947Z,15.70
2017-08-09T22:22:17.575Z,15.97
2017-08-09T22:24:45.993Z,16.20
2017-08-09T22:27:14.321Z,21.67
2017-08-09T22:29:43.451Z,10.63
2017-08-09T22:32:12.786Z,9.17
2017-08-09T22:34:41.097Z,9.80
2017-08-09T22:37:09.665Z,10.90
2017-08-09T22:39:38.018Z,9.00
2017-08-09T22:42:06.383Z,13.23
2017-08-09T22:44:34.977Z,25.53
2017-08-09T22:47:03.349Z,24.93
2017-08-09T22:49:31.941Z,15.30
2017-08-09T22:52:00.834Z,16.97
2017-08-09T22:54:29.347Z,21.33
2017-08-09T22:56:57.769Z,15.67
2017-08-09T22:59:26.922Z,14.63
2017-08-09T23:01:55.704Z,19.30
2017-08-09T23:04:24.897Z,20.93
2017-08-09T23:06:58.434Z,25.63
2017-08-09T23:09:27.895Z,17.73
2017-08-09T23:11:57.347Z,15.90
2017-08-09T23:14:26.405Z,16.93
2017-08-09T23:16:55.070Z,23.43
2017-08-09T23:19:24.447Z,17.60
2017-08-09T23:21:53.933Z,23.93
2017-08-09T23:24:22.467Z,13.50
2017-08-09T23:26:51.228Z,26.10
2017-08-09T23:29:21.546Z,22.70
2017-08-09T23:31:50.989Z,18.57
2017-08-09T23:34:19.776Z,15.80
2017-08-09T23:36:48.519Z,23.13
2017-08-09T23:39:16.860Z,25.90
2017-08-09T23:41:45.256Z,21.37
2017-08-09T23:44:13.997Z,25.53
2017-08-09T23:46:42.349Z,28.83
2017-08-09T23:49:10.706Z,20.53
2017-08-09T23:51:39.515Z,13.10
2017-08-09T23:54:07.941Z,23.80
2017-08-09T23:56:36.297Z,20.20
2017-08-09T23:59:04.964Z,20.70
